Amsterdam, MO

10:32 AM CDT on September 17, 2014 (GMT -0500)
KMOAMSTE2 | Change Station
CLOSE
Current Station
Personal Weather Station
Location: Amsterdam, MO
Elevation: 906 ft
Nearby Weather Stations

Elev 906 ft 38.36 °N, 94.61 °W | Updated 3 seconds ago

Overcast
Overcast
71.4 °F
Feels Like 71.4 °F
N
0.0
Wind Variable Wind from SSE
Gusts 0.0 mph

Today
High -- | Low -- °F
--% Chance of Precip.
Yesterday
High -- | Low -- °F
Precip. -- in
7:01 AM 7:23 PM
Waning Crescent, 35% visible
Pressure 29.93 in
Visibility 7.0 miles
Clouds Mostly Cloudy 900 ft
Overcast 1200 ft
Dew Point 69 °F
Humidity 93%
Rainfall 0.25 in
Snow Depth Not available.
UV 1 out of 12
Pollen 4.30 out of 12
Air Quality Not available.
Flu Activity Not available.
SPECI KOJC 171458Z 00000KT 7SM BKN009 OVC012 19/19 A2993 RMK AO2 CIG 004V010 T01890189 $

More Conditions Fewer Conditions

Pressure 29.93 in
Visibility 7.0 miles
Clouds Mostly Cloudy 900 ft
Overcast 1200 ft
Dew Point 69 °F
Humidity 93%
Rainfall 0.25 in
Snow Depth Not available.
UV 1 out of 12
Pollen 4.30 out of 12
Air Quality Not available.
Flu Activity Not available.
SPECI KOJC 171458Z 00000KT 7SM BKN009 OVC012 19/19 A2993 RMK AO2 CIG 004V010 T01890189 $

More Conditions Fewer Conditions

10-Day Weather Forecast

Almanac

Astronomy

Sep. 17, 2014 Rise Set
Actual Time 7:01 AM CDT 7:23 PM CDT
Civil Twilight 6:35 AM CDT 7:49 PM CDT
Nautical Twilight 6:03 AM CDT 8:20 PM CDT
Astronomical Twilight 5:32 AM CDT 8:52 PM CDT
Moon 1:05 AM CDT 3:30 PM CDT
Length of Visible Light 13h 14m
Length of Day
12h 21m
Tomorrow will be 2m 28s shorter.
Waning Crescent, 35% of the Moon is Illuminated
Today
Waning Crescent
Sep 24
New
Oct 1
First Quarter
Oct 8
Full
Oct 15
Last Quarter

Today's Extremes

State Highs State Lows

Community

WunderPhotos

Upload Photos

1,754,068 photos uploaded!

WunderBlogs® & News

Nearby

Snow Depth

Station Depth Elevation
No new snow has been reported.

Earthquake Activity

City Distance Mag. Time & Date
No recent earthquake activity has been reported nearby.
Minimum magnitude displayed is 2.5.

Coastal Water Temperatures

Place Temperature
No Stations Reporting

Nearby Weather Stations